Time;durP1;ratioP1;P1;durP2;ratioP2;P2;SDS_P1;SDS_P2;PMS_P1;PMS_P2;Temp;Humidity;BMP_temperature;BMP_pressure;BME280_temperature;BME280_humidity;BME280_pressure;Samples;Min_cycle;Max_cycle;Signal;HPM_P1;HPM_P2
2022/04/25 00:03:31;;;;;;;12.27;7.60;;;9.10;99.90;;;;;;10258447;28;20051;-57
2022/04/25 00:08:33;;;;;;;13.52;7.15;;;9.10;99.90;;;;;;10257851;28;20135;-57
2022/04/25 00:13:35;;;;;;;10.25;5.97;;;9.10;99.90;;;;;;10255637;28;20050;-57
2022/04/25 00:18:37;;;;;;;10.48;6.22;;;9.10;99.90;;;;;;10257685;28;20050;-58
2022/04/25 00:23:39;;;;;;;11.13;6.47;;;9.10;99.90;;;;;;10256516;28;20047;-57
2022/04/25 00:28:40;;;;;;;12.77;6.18;;;9.00;99.90;;;;;;10255441;28;20062;-58
2022/04/25 00:33:42;;;;;;;13.85;6.80;;;9.00;99.90;;;;;;10257322;28;20583;-58
2022/04/25 00:38:44;;;;;;;12.77;5.70;;;8.90;99.90;;;;;;10254591;28;20194;-57
2022/04/25 00:43:45;;;;;;;13.82;5.95;;;8.80;99.90;;;;;;10255964;28;20118;-57
2022/04/25 00:48:48;;;;;;;10.60;6.60;;;8.80;99.90;;;;;;10255009;28;20123;-57
2022/04/25 00:53:50;;;;;;;14.05;6.55;;;8.80;99.90;;;;;;10250736;28;20078;-56
2022/04/25 00:58:52;;;;;;;11.88;6.50;;;8.80;99.90;;;;;;10255344;28;20055;-56
2022/04/25 01:03:53;;;;;;;10.98;6.07;;;8.70;99.90;;;;;;10254225;28;20102;-60
2022/04/25 01:08:55;;;;;;;16.38;7.30;;;8.70;99.90;;;;;;10255362;28;20383;-58
2022/04/25 01:13:57;;;;;;;14.00;7.25;;;8.60;99.90;;;;;;10257691;28;20125;-58
2022/04/25 01:18:58;;;;;;;13.00;6.47;;;8.50;99.90;;;;;;10257456;28;20502;-59
2022/04/25 01:29:20;;;;;;;13.82;6.95;;;8.40;99.90;;;;;;10260674;28;20058;-58
2022/04/25 01:34:22;;;;;;;12.23;6.85;;;8.40;99.90;;;;;;10265581;28;20651;-60
2022/04/25 01:39:23;;;;;;;11.98;7.47;;;8.20;99.90;;;;;;10259766;28;20043;-60
2022/04/25 01:44:25;;;;;;;12.68;6.43;;;8.10;99.90;;;;;;10262468;28;20062;-58
2022/04/25 01:49:27;;;;;;;14.13;7.90;;;8.10;99.90;;;;;;10257474;28;20070;-57
2022/04/25 01:54:32;;;;;;;11.88;6.97;;;8.00;99.90;;;;;;10259002;28;20110;-57
2022/04/25 01:59:35;;;;;;;14.95;7.45;;;8.00;99.90;;;;;;10256204;28;20039;-58
2022/04/25 02:04:38;;;;;;;14.20;7.10;;;7.90;99.90;;;;;;10263085;28;20508;-57
2022/04/25 02:09:40;;;;;;;14.45;7.60;;;7.70;99.90;;;;;;10255456;28;20608;-58
2022/04/25 02:14:43;;;;;;;11.52;6.60;;;7.60;99.90;;;;;;10263005;28;20042;-57
2022/04/25 02:19:45;;;;;;;12.30;7.10;;;7.60;99.90;;;;;;10254644;28;20120;-56
2022/04/25 02:24:47;;;;;;;15.35;7.32;;;7.50;99.90;;;;;;10262862;28;20102;-56
2022/04/25 02:29:53;;;;;;;15.80;7.68;;;7.40;99.90;;;;;;10260576;28;20098;-57
2022/04/25 02:34:55;;;;;;;16.83;7.60;;;7.30;99.90;;;;;;10257191;28;20429;-55
2022/04/25 02:39:57;;;;;;;14.85;7.88;;;7.30;99.90;;;;;;10247242;28;20119;-56
2022/04/25 02:44:58;;;;;;;14.65;7.78;;;7.20;99.90;;;;;;10254439;28;20058;-57
2022/04/25 02:50:00;;;;;;;15.40;6.95;;;7.20;99.90;;;;;;10261188;28;20050;-56
2022/04/25 02:55:01;;;;;;;17.05;7.32;;;7.10;99.90;;;;;;10255904;28;20055;-57
2022/04/25 03:00:05;;;;;;;13.30;6.90;;;7.00;99.90;;;;;;10256971;28;20059;-57
2022/04/25 03:05:07;;;;;;;14.40;7.60;;;7.00;99.90;;;;;;10255948;28;20087;-56
2022/04/25 03:10:09;;;;;;;17.42;7.40;;;6.90;99.90;;;;;;10261139;28;20106;-58
2022/04/25 03:15:11;;;;;;;16.85;8.23;;;6.90;99.90;;;;;;10259901;28;20110;-57
2022/04/25 03:20:13;;;;;;;16.50;8.68;;;6.90;99.90;;;;;;10250754;28;20109;-57
2022/04/25 03:25:14;;;;;;;15.98;7.95;;;6.90;99.90;;;;;;10252936;28;20114;-56
2022/04/25 03:30:16;;;;;;;15.40;8.15;;;7.00;99.90;;;;;;10256221;28;20046;-56
2022/04/25 03:35:20;;;;;;;15.77;7.70;;;7.10;99.90;;;;;;10262643;28;20537;-55
2022/04/25 03:40:21;;;;;;;16.73;8.02;;;7.10;99.90;;;;;;10256645;28;20043;-58
2022/04/25 03:45:23;;;;;;;14.73;7.65;;;7.10;99.90;;;;;;10256490;28;20114;-58
2022/04/25 03:50:25;;;;;;;16.63;8.07;;;7.10;99.90;;;;;;10255998;28;20517;-58
2022/04/25 04:00:48;;;;;;;17.85;8.02;;;7.20;99.90;;;;;;10253766;28;20598;-56
2022/04/25 04:05:50;;;;;;;16.13;8.38;;;7.40;99.90;;;;;;10260252;28;20106;-55
2022/04/25 04:10:52;;;;;;;16.10;8.27;;;7.50;99.90;;;;;;10252375;28;20062;-59
2022/04/25 04:15:56;;;;;;;14.10;7.78;;;7.50;99.90;;;;;;10248493;28;20046;-60
2022/04/25 04:20:58;;;;;;;16.00;8.23;;;7.60;99.90;;;;;;10251424;28;20133;-58
2022/04/25 04:26:06;;;;;;;16.70;8.52;;;7.70;99.90;;;;;;10254835;28;20046;-59
2022/04/25 04:31:07;;;;;;;15.10;8.18;;;7.80;99.90;;;;;;10236560;28;20457;-60
2022/04/25 04:36:18;;;;;;;17.20;9.30;;;7.90;99.90;;;;;;10254436;28;20069;-57
2022/04/25 04:41:20;;;;;;;15.93;8.73;;;7.90;99.90;;;;;;10259742;28;20130;-61
2022/04/25 04:46:21;;;;;;;14.70;8.85;;;8.10;99.90;;;;;;10259337;28;20117;-58
2022/04/25 04:51:23;;;;;;;15.32;8.68;;;8.10;99.90;;;;;;10255993;28;20038;-58
2022/04/25 04:56:32;;;;;;;15.70;9.48;;;8.20;99.90;;;;;;10240236;28;20050;-59
2022/04/25 05:01:34;;;;;;;13.80;7.55;;;8.30;99.90;;;;;;10262156;28;20537;-58
2022/04/25 05:06:35;;;;;;;13.70;7.97;;;8.40;99.90;;;;;;10261033;28;20494;-58
2022/04/25 05:11:37;;;;;;;10.98;6.22;;;8.50;99.90;;;;;;10252301;28;20099;-59
2022/04/25 05:16:40;;;;;;;11.20;6.40;;;8.70;99.90;;;;;;10264702;28;20478;-60
2022/04/25 05:21:42;;;;;;;14.88;7.07;;;8.80;99.90;;;;;;10262386;28;20077;-57
2022/04/25 05:26:44;;;;;;;10.40;5.68;;;8.90;99.90;;;;;;10250664;28;20058;-59
2022/04/25 05:31:46;;;;;;;11.80;6.20;;;9.10;99.90;;;;;;10263579;28;20055;-60
2022/04/25 05:36:57;;;;;;;13.63;6.32;;;9.30;99.90;;;;;;10242715;28;20129;-60
2022/04/25 05:41:59;;;;;;;13.32;6.57;;;9.40;99.90;;;;;;10243318;28;20047;-60
2022/04/25 05:47:01;;;;;;;11.93;7.45;;;9.40;99.90;;;;;;10261617;28;20050;-60
2022/04/25 05:52:05;;;;;;;19.40;8.43;;;9.60;99.90;;;;;;10263509;28;20082;-58
2022/04/25 05:57:07;;;;;;;13.90;7.68;;;9.70;99.90;;;;;;10259497;28;20048;-58
2022/04/25 06:02:09;;;;;;;14.88;7.82;;;9.80;99.90;;;;;;10260738;28;20054;-58
2022/04/25 06:07:11;;;;;;;10.32;6.55;;;10.00;99.90;;;;;;10259280;28;20054;-58
2022/04/25 06:12:12;;;;;;;13.85;6.95;;;10.20;99.90;;;;;;10255835;28;20055;-59
2022/04/25 06:17:15;;;;;;;12.48;6.53;;;10.40;99.90;;;;;;10263413;28;20102;-58
2022/04/25 06:22:20;;;;;;;12.82;6.93;;;10.50;99.90;;;;;;10260239;28;20450;-58
2022/04/25 06:27:22;;;;;;;11.45;6.70;;;10.60;99.90;;;;;;10249200;28;20078;-58
2022/04/25 06:32:25;;;;;;;13.55;6.60;;;10.80;99.90;;;;;;10254702;28;20075;-59
2022/04/25 06:37:26;;;;;;;11.20;7.10;;;10.90;99.90;;;;;;10256161;28;20109;-58
2022/04/25 06:42:28;;;;;;;11.77;5.88;;;11.00;99.90;;;;;;10259460;28;20069;-59
2022/04/25 06:47:30;;;;;;;10.88;5.55;;;11.10;99.90;;;;;;10255979;28;20047;-58
2022/04/25 06:52:31;;;;;;;9.15;5.38;;;11.30;99.90;;;;;;10256318;28;20066;-59
2022/04/25 06:57:33;;;;;;;9.63;5.03;;;11.50;99.90;;;;;;10257204;28;20106;-58
2022/04/25 07:02:36;;;;;;;9.15;4.30;;;11.70;99.90;;;;;;10253304;28;20055;-60
2022/04/25 07:07:38;;;;;;;6.95;3.42;;;11.90;99.90;;;;;;10261515;28;20548;-60
2022/04/25 07:12:39;;;;;;;6.88;3.63;;;12.10;98.20;;;;;;10245764;28;20066;-61
2022/04/25 07:17:41;;;;;;;8.35;4.07;;;12.20;98.50;;;;;;10251712;28;20047;-59
2022/04/25 07:33:23;;;;;;;6.43;3.90;;;12.60;97.90;;;;;;10252598;28;20053;-58
2022/04/25 07:38:25;;;;;;;6.68;3.55;;;12.70;96.60;;;;;;10257472;28;20049;-58
2022/04/25 07:43:29;;;;;;;10.30;3.92;;;12.80;95.80;;;;;;10254980;28;20046;-60
2022/04/25 07:48:31;;;;;;;9.63;3.35;;;12.90;95.50;;;;;;10258500;28;20050;-59
2022/04/25 07:53:32;;;;;;;6.95;3.72;;;13.00;94.60;;;;;;10255682;28;20639;-59
2022/04/25 07:58:34;;;;;;;5.57;4.05;;;13.10;94.40;;;;;;10259141;28;20047;-59
2022/04/25 08:03:36;;;;;;;6.50;4.20;;;13.20;93.80;;;;;;10257718;28;20134;-59
2022/04/25 08:08:38;;;;;;;7.00;4.43;;;13.20;94.30;;;;;;10248619;28;20047;-59
2022/04/25 08:19:06;;;;;;;8.13;4.68;;;13.40;95.40;;;;;;10253878;28;20050;-60
2022/04/25 08:24:09;;;;;;;8.45;4.60;;;13.60;94.60;;;;;;10225244;28;20532;-60
2022/04/25 08:29:11;;;;;;;5.90;3.80;;;13.80;92.90;;;;;;10270537;28;20080;-58
2022/04/25 08:34:14;;;;;;;5.32;3.50;;;13.90;93.00;;;;;;10225898;28;20062;-59
2022/04/25 08:39:16;;;;;;;7.90;3.53;;;14.00;91.20;;;;;;10267944;28;20051;-58
2022/04/25 08:44:18;;;;;;;4.97;3.30;;;14.10;91.30;;;;;;10248101;28;20083;-58
2022/04/25 08:49:21;;;;;;;5.15;2.90;;;14.10;89.60;;;;;;10271618;28;20118;-58
2022/04/25 08:54:22;;;;;;;7.35;4.60;;;14.20;88.30;;;;;;10268047;28;20062;-59
2022/04/25 08:59:26;;;;;;;7.22;3.97;;;14.30;88.10;;;;;;10263682;28;20087;-58
2022/04/25 09:04:28;;;;;;;5.20;3.67;;;14.40;88.20;;;;;;10258234;28;20077;-58
2022/04/25 09:09:29;;;;;;;5.05;3.30;;;14.40;88.20;;;;;;10264653;28;20387;-58
2022/04/25 09:14:32;;;;;;;4.63;3.33;;;14.70;86.40;;;;;;10261912;28;20047;-59
2022/04/25 09:19:36;;;;;;;7.65;4.00;;;15.00;85.80;;;;;;10260911;28;20129;-58
2022/04/25 09:24:46;;;;;;;11.68;4.15;;;15.30;83.00;;;;;;10259840;28;20133;-59
2022/04/25 09:29:48;;;;;;;8.55;4.45;;;15.60;81.80;;;;;;10262861;28;20113;-60
2022/04/25 09:35:05;;;;;;;7.07;4.05;;;15.90;78.00;;;;;;10260396;28;20138;-58
2022/04/25 09:40:07;;;;;;;5.35;3.80;;;16.10;77.40;;;;;;10259443;28;20055;-59
2022/04/25 09:45:09;;;;;;;7.18;4.00;;;16.10;76.30;;;;;;10265952;28;20062;-59
2022/04/25 09:50:13;;;;;;;6.28;4.15;;;15.90;74.70;;;;;;10225218;28;20491;-60
2022/04/25 09:55:37;;;;;;;8.38;4.75;;;15.90;76.70;;;;;;10260902;28;20136;-59
2022/04/25 10:00:38;;;;;;;7.88;4.05;;;16.10;76.20;;;;;;10260948;28;20127;-59
2022/04/25 10:05:51;;;;;;;8.07;4.90;;;16.20;74.50;;;;;;10259602;28;20502;-59
2022/04/25 10:10:53;;;;;;;6.68;4.63;;;15.00;75.00;;;;;;10262152;28;20446;-58
2022/04/25 10:15:56;;;;;;;6.25;4.20;;;15.70;77.60;;;;;;10256150;28;20050;-58
2022/04/25 10:20:59;;;;;;;9.55;4.63;;;15.90;76.20;;;;;;10261326;28;20058;-59
2022/04/25 10:26:01;;;;;;;6.97;3.95;;;16.50;74.40;;;;;;10257489;28;20050;-59
2022/04/25 10:31:20;;;;;;;8.68;5.28;;;16.90;72.50;;;;;;10253149;28;20474;-59
2022/04/25 10:36:37;;;;;;;7.18;4.47;;;16.30;71.90;;;;;;10260346;28;20043;-58
2022/04/25 10:47:05;;;;;;;7.18;4.50;;;16.30;70.70;;;;;;10255707;28;20061;-59
2022/04/25 10:58:01;;;;;;;6.65;3.83;;;17.20;71.80;;;;;;10260353;28;20058;-58
2022/04/25 11:03:04;;;;;;;7.60;4.10;;;17.50;69.70;;;;;;10222052;28;20513;-59
2022/04/25 11:08:26;;;;;;;7.97;4.80;;;17.60;68.20;;;;;;10240771;28;20615;-59
2022/04/25 11:13:53;;;;;;;7.00;4.25;;;17.20;66.10;;;;;;10259250;28;20050;-59
2022/04/25 11:19:19;;;;;;;5.93;4.22;;;17.00;68.20;;;;;;10263851;28;20482;-59
2022/04/25 11:24:39;;;;;;;6.05;3.75;;;17.40;68.50;;;;;;10247364;28;20050;-60
2022/04/25 11:29:45;;;;;;;6.65;3.72;;;17.70;67.40;;;;;;10249141;28;20051;-59
2022/04/25 11:34:47;;;;;;;4.57;3.87;;;18.30;64.90;;;;;;10261135;28;20050;-59
2022/04/25 11:40:09;;;;;;;6.13;3.47;;;17.90;64.10;;;;;;10268314;28;20783;-60
2022/04/25 11:45:11;;;;;;;5.25;3.55;;;17.80;64.00;;;;;;10256021;28;20053;-59
2022/04/25 11:50:13;;;;;;;8.73;3.88;;;17.70;62.10;;;;;;10258409;28;20055;-59
2022/04/25 11:55:30;;;;;;;5.28;3.67;;;17.40;62.70;;;;;;10262157;28;20110;-60
2022/04/25 12:00:34;;;;;;;6.75;3.85;;;17.50;65.20;;;;;;10257228;28;20038;-60
2022/04/25 12:05:36;;;;;;;6.07;3.83;;;17.40;64.30;;;;;;10256837;28;20043;-60
2022/04/25 12:15:59;;;;;;;8.15;4.03;;;18.00;64.40;;;;;;10259642;28;20486;-59
2022/04/25 12:21:08;;;;;;;5.03;3.08;;;17.90;63.60;;;;;;10255911;28;20053;-58
2022/04/25 12:26:18;;;;;;;4.55;3.28;;;18.20;63.80;;;;;;10260349;28;20047;-58
2022/04/25 12:31:20;;;;;;;7.70;4.32;;;17.90;63.80;;;;;;10256871;28;20055;-59
2022/04/25 12:36:27;;;;;;;5.55;3.85;;;18.00;64.10;;;;;;10255651;28;20050;-59
2022/04/25 12:41:38;;;;;;;6.07;3.80;;;17.90;64.40;;;;;;10255243;28;20047;-59
2022/04/25 12:46:43;;;;;;;6.72;3.13;;;18.00;63.50;;;;;;10251473;28;20059;-59
2022/04/25 12:51:54;;;;;;;6.28;3.47;;;18.10;61.80;;;;;;10258987;28;20051;-58
2022/04/25 12:57:10;;;;;;;5.75;2.90;;;18.60;61.80;;;;;;10250304;28;20051;-58
2022/04/25 13:02:17;;;;;;;4.07;3.00;;;19.10;63.20;;;;;;10255065;28;20062;-59
2022/04/25 13:07:37;;;;;;;5.50;3.60;;;19.30;60.70;;;;;;10251631;28;20154;-58
2022/04/25 13:12:42;;;;;;;5.32;3.58;;;19.90;58.70;;;;;;10259314;28;20043;-58
2022/04/25 13:17:44;;;;;;;6.72;3.53;;;19.70;59.00;;;;;;10263074;28;20383;-59
2022/04/25 13:22:46;;;;;;;7.57;2.90;;;20.60;58.50;;;;;;10245392;28;20074;-59
2022/04/25 13:27:48;;;;;;;4.97;3.17;;;20.80;57.50;;;;;;10267330;28;20062;-58
2022/04/25 13:32:54;;;;;;;6.50;3.25;;;20.70;57.30;;;;;;10262936;28;20058;-59
2022/04/25 13:37:56;;;;;;;5.82;3.10;;;20.40;57.20;;;;;;10247414;28;20080;-58
2022/04/25 13:42:57;;;;;;;4.18;2.88;;;20.60;57.40;;;;;;10262874;28;20066;-59
2022/04/25 13:48:00;;;;;;;5.07;3.05;;;20.00;58.00;;;;;;10266480;28;20413;-59
2022/04/25 13:53:02;;;;;;;3.78;2.28;;;19.30;59.50;;;;;;10265136;28;20077;-59
2022/04/25 13:58:05;;;;;;;4.97;2.92;;;18.90;61.40;;;;;;10266307;28;20051;-58
2022/04/25 14:03:08;;;;;;;5.13;2.75;;;18.50;63.40;;;;;;10265228;28;20055;-58
2022/04/25 14:08:18;;;;;;;4.97;2.50;;;18.20;63.40;;;;;;10258814;28;20142;-58
2022/04/25 14:13:20;;;;;;;2.78;2.00;;;18.00;64.00;;;;;;10257249;28;20150;-58
2022/04/25 14:18:22;;;;;;;4.43;1.90;;;17.70;63.90;;;;;;10264218;28;20051;-59
2022/04/25 14:23:25;;;;;;;4.72;2.70;;;17.60;65.70;;;;;;10246287;28;20051;-59
2022/04/25 14:28:27;;;;;;;3.85;2.00;;;17.40;66.20;;;;;;10261996;28;20070;-58
2022/04/25 14:33:49;;;;;;;3.10;1.85;;;17.20;65.80;;;;;;10259803;28;20063;-59
2022/04/25 14:38:50;;;;;;;3.92;2.60;;;17.60;65.70;;;;;;10259723;28;20050;-57
2022/04/25 14:43:52;;;;;;;3.83;2.10;;;17.80;64.60;;;;;;10259425;28;20043;-58
2022/04/25 14:48:54;;;;;;;2.80;1.98;;;18.20;64.00;;;;;;10255887;28;20490;-58
2022/04/25 14:59:16;;;;;;;2.70;1.42;;;18.00;64.40;;;;;;10257235;28;20601;-57
2022/04/25 15:04:20;;;;;;;2.97;2.13;;;17.80;65.20;;;;;;10255803;28;20704;-58
2022/04/25 15:09:21;;;;;;;2.47;1.73;;;17.60;66.50;;;;;;10256020;28;20059;-58
2022/04/25 15:14:23;;;;;;;3.67;2.05;;;17.40;67.20;;;;;;10260019;28;20058;-59
2022/04/25 15:19:25;;;;;;;3.83;2.13;;;16.90;69.10;;;;;;10258789;28;20102;-58
2022/04/25 15:24:26;;;;;;;3.90;2.20;;;16.70;70.10;;;;;;10255018;28;20051;-58
2022/04/25 15:29:29;;;;;;;5.43;2.30;;;16.40;71.40;;;;;;10241001;28;20489;-58
2022/04/25 15:34:30;;;;;;;3.03;1.65;;;16.20;73.80;;;;;;10260279;28;20097;-58
2022/04/25 15:39:35;;;;;;;1.73;1.15;;;15.80;72.70;;;;;;10257587;28;20125;-58
2022/04/25 15:44:36;;;;;;;1.90;1.23;;;15.70;74.90;;;;;;10256687;28;20059;-57
2022/04/25 15:49:38;;;;;;;2.65;1.10;;;15.60;76.10;;;;;;10258952;28;20792;-58
2022/04/25 16:00:00;;;;;;;1.80;0.95;;;15.20;77.90;;;;;;10259486;28;20051;-59
2022/04/25 16:05:03;;;;;;;1.50;0.63;;;15.10;76.80;;;;;;10262444;28;20446;-58
2022/04/25 16:10:06;;;;;;;1.98;1.08;;;15.00;78.00;;;;;;10259298;28;20053;-58
2022/04/25 16:15:08;;;;;;;1.25;0.88;;;14.90;78.30;;;;;;10263081;28;20090;-58
2022/04/25 16:20:10;;;;;;;1.15;0.65;;;14.60;77.70;;;;;;10257938;28;20051;-57
2022/04/25 16:25:12;;;;;;;1.88;1.17;;;14.40;78.80;;;;;;10260493;28;20107;-58
2022/04/25 16:30:14;;;;;;;1.70;0.80;;;14.20;82.40;;;;;;10257474;28;20055;-58
2022/04/25 16:35:15;;;;;;;3.55;1.73;;;14.00;85.00;;;;;;10262844;28;20054;-56
2022/04/25 16:40:17;;;;;;;4.85;1.25;;;13.60;90.50;;;;;;10261266;28;20393;-58
2022/04/25 16:45:19;;;;;;;5.60;1.67;;;13.20;95.00;;;;;;10266363;28;20051;-58
2022/04/25 16:50:21;;;;;;;2.78;1.63;;;12.90;99.30;;;;;;10264294;28;20047;-60
2022/04/25 16:55:26;;;;;;;5.32;1.73;;;12.30;99.90;;;;;;10264738;28;20047;-57
2022/04/25 17:00:27;;;;;;;3.80;1.90;;;12.00;99.90;;;;;;10262252;28;20051;-59
2022/04/25 17:05:29;;;;;;;2.70;1.25;;;11.50;99.90;;;;;;10262455;28;20055;-61
2022/04/25 17:10:31;;;;;;;4.57;0.93;;;11.00;99.90;;;;;;10260223;28;20603;-60
2022/04/25 17:15:32;;;;;;;1.70;0.80;;;10.40;99.90;;;;;;10264509;28;20063;-61
2022/04/25 17:20:34;;;;;;;3.58;1.23;;;10.10;99.90;;;;;;10263088;28;20121;-60
2022/04/25 17:25:37;;;;;;;4.65;1.20;;;10.00;99.90;;;;;;10256628;28;20047;-61
2022/04/25 17:30:39;;;;;;;2.50;1.00;;;9.80;99.90;;;;;;10265371;28;20493;-61
2022/04/25 17:35:44;;;;;;;2.95;1.13;;;9.70;99.90;;;;;;10245801;28;20066;-62
